Terminal Aerodrome Forecast
Issued by NWS

Home | Current Version | Previous Version | Text Only | Print | Product List | Glossary On
Versions: 1 2 3 4 5 6 7 8 9 10 11 12 13 14 15 16
000
FTUS45 KFGZ 192300
TAFPGA
TAF
KPGA 192321Z 2000/2024 VRB05KT P6SM FEW120
      TEMPO 2000/2001 12010G20KT
     FM200300 VRB03KT P6SM SKC=

USA.gov is the U.S. government's official web portal to all federal, state and local government web resources and services.